Time;durP1;ratioP1;P1;durP2;ratioP2;P2;SDS_P1;SDS_P2;PMS_P1;PMS_P2;Temp;Humidity;BMP_temperature;BMP_pressure;BME280_temperature;BME280_humidity;BME280_pressure;Samples;Min_cycle;Max_cycle;Signal;HPM_P1;HPM_P2
2023/09/24 00:02:28;;;;;;;2.45;1.40;;;18.00;88.00;;;;;;4240404;27;20103;-53
2023/09/24 00:05:12;;;;;;;4.50;1.33;;;17.90;87.90;;;;;;4240250;27;20058;-53
2023/09/24 00:07:55;;;;;;;7.03;1.95;;;17.90;88.00;;;;;;4223138;27;20054;-54
2023/09/24 00:10:36;;;;;;;2.55;1.70;;;17.90;88.10;;;;;;4238976;27;20143;-55
2023/09/24 00:13:17;;;;;;;3.72;2.40;;;17.90;88.10;;;;;;4240257;27;20512;-55
2023/09/24 00:16:04;;;;;;;2.42;1.70;;;18.00;88.30;;;;;;4240289;27;20046;-55
2023/09/24 00:18:45;;;;;;;4.10;2.17;;;17.90;88.30;;;;;;4239956;27;20054;-55
2023/09/24 00:21:26;;;;;;;5.93;2.00;;;17.90;88.40;;;;;;4229196;27;20050;-55
2023/09/24 00:24:10;;;;;;;4.20;2.08;;;17.90;88.40;;;;;;4238178;27;20065;-53
2023/09/24 00:26:50;;;;;;;3.88;1.75;;;17.90;88.40;;;;;;4238757;27;20054;-53
2023/09/24 00:29:31;;;;;;;2.78;2.00;;;17.90;88.40;;;;;;4239730;27;20070;-56
2023/09/24 00:32:12;;;;;;;;;;;17.90;88.50;;;;;;4240392;27;20069;-54
2023/09/24 00:34:54;;;;;;;4.00;1.60;;;17.90;88.50;;;;;;4239418;27;19930;-53
2023/09/24 00:37:35;;;;;;;4.32;1.85;;;17.90;89.10;;;;;;4238097;27;20818;-57
2023/09/24 00:40:18;;;;;;;4.53;1.50;;;17.90;89.00;;;;;;4239480;27;20499;-56
2023/09/24 00:42:59;;;;;;;4.03;1.50;;;17.90;88.90;;;;;;4238927;27;20488;-55
2023/09/24 00:45:42;;;;;;;4.85;1.65;;;17.90;88.90;;;;;;4239790;27;20054;-55
2023/09/24 00:48:28;;;;;;;3.58;1.77;;;17.90;89.00;;;;;;4237553;27;20109;-55
2023/09/24 00:51:16;;;;;;;2.33;1.40;;;17.90;89.80;;;;;;4239425;27;20088;-53
2023/09/24 00:53:58;;;;;;;6.85;1.80;;;17.90;89.70;;;;;;4239568;27;20557;-55
2023/09/24 00:56:41;;;;;;;4.55;2.03;;;17.90;88.80;;;;;;4239526;27;20195;-52
2023/09/24 00:59:22;;;;;;;3.15;1.70;;;17.90;88.80;;;;;;4239385;27;20074;-55
2023/09/24 01:02:05;;;;;;;5.18;1.52;;;17.80;88.70;;;;;;4238246;27;20054;-52
2023/09/24 01:04:46;;;;;;;9.20;3.00;;;17.90;88.80;;;;;;4238172;27;20549;-55
2023/09/24 01:07:28;;;;;;;3.13;1.80;;;17.80;89.60;;;;;;4226170;27;20515;-55
2023/09/24 01:10:11;;;;;;;3.95;1.73;;;17.80;88.60;;;;;;4239405;27;20477;-56
2023/09/24 01:12:59;;;;;;;4.03;1.73;;;17.80;88.60;;;;;;4237729;27;20501;-54
2023/09/24 01:15:40;;;;;;;2.78;1.83;;;17.80;88.40;;;;;;4237419;27;20091;-52
2023/09/24 01:18:21;;;;;;;3.63;1.77;;;17.80;88.50;;;;;;4239603;27;20058;-55
2023/09/24 01:21:03;;;;;;;2.65;1.92;;;17.80;88.40;;;;;;4239264;27;20054;-56
2023/09/24 01:23:48;;;;;;;3.00;1.95;;;17.80;88.50;;;;;;4238295;27;20070;-53
2023/09/24 01:26:31;;;;;;;5.60;1.95;;;17.80;88.50;;;;;;4237762;27;20046;-50
2023/09/24 01:29:14;;;;;;;3.83;1.60;;;17.80;88.50;;;;;;4238577;27;20389;-54
2023/09/24 01:31:55;;;;;;;1.83;1.60;;;17.80;88.60;;;;;;4238732;27;20188;-56
2023/09/24 01:34:36;;;;;;;;;;;17.80;88.70;;;;;;4238159;27;20050;-53
2023/09/24 01:37:18;;;;;;;4.72;1.52;;;17.80;88.70;;;;;;4237593;27;20392;-55
2023/09/24 01:40:02;;;;;;;3.42;1.80;;;17.80;89.20;;;;;;4236786;27;20409;-53
2023/09/24 01:42:44;;;;;;;5.18;1.70;;;17.80;89.10;;;;;;4238488;27;20054;-56
2023/09/24 01:45:26;;;;;;;2.22;1.30;;;17.80;89.00;;;;;;4238903;27;20393;-56
2023/09/24 01:48:07;;;;;;;3.30;1.80;;;17.80;89.00;;;;;;4221167;27;20050;-52
2023/09/24 01:50:48;;;;;;;2.72;1.60;;;17.70;88.90;;;;;;4220451;27;20496;-55
2023/09/24 01:53:32;;;;;;;4.05;2.05;;;17.80;89.00;;;;;;4221527;27;20505;-55
2023/09/24 01:56:17;;;;;;;2.28;1.50;;;17.80;89.10;;;;;;4233983;27;20496;-54
2023/09/24 01:58:59;;;;;;;3.45;1.55;;;17.80;89.10;;;;;;4237362;27;20619;-53
2023/09/24 02:01:40;;;;;;;3.15;1.33;;;17.80;89.10;;;;;;4225907;27;20050;-55
2023/09/24 02:04:21;;;;;;;1.35;1.20;;;17.80;89.00;;;;;;4236121;27;20046;-55
2023/09/24 02:07:03;;;;;;;2.58;1.30;;;17.70;88.90;;;;;;4237372;27;20054;-54
2023/09/24 02:09:44;;;;;;;2.70;1.40;;;17.70;88.90;;;;;;4238344;27;20437;-53
2023/09/24 02:12:28;;;;;;;1.50;1.40;;;17.70;89.60;;;;;;4237431;27;20919;-52
2023/09/24 02:15:12;;;;;;;1.38;1.30;;;17.70;88.70;;;;;;4228878;27;20054;-55
2023/09/24 02:17:53;;;;;;;2.92;1.70;;;17.70;88.50;;;;;;4220386;27;20046;-56
2023/09/24 02:20:35;;;;;;;2.88;1.60;;;17.70;88.30;;;;;;4220612;27;20100;-54
2023/09/24 02:23:16;;;;;;;2.70;1.60;;;17.70;88.30;;;;;;4208764;27;20055;-56
2023/09/24 02:26:00;;;;;;;3.47;1.17;;;17.70;88.30;;;;;;4236535;27;20481;-55
2023/09/24 02:28:42;;;;;;;1.77;1.35;;;17.70;88.30;;;;;;4237702;27;20089;-52
2023/09/24 02:31:23;;;;;;;1.17;1.10;;;17.60;88.20;;;;;;4232313;27;20493;-51
2023/09/24 02:34:04;;;;;;;;;;;17.70;89.00;;;;;;4233601;27;20087;-54
2023/09/24 02:36:45;;;;;;;3.33;1.00;;;17.70;88.10;;;;;;4237261;27;20059;-56
2023/09/24 02:39:26;;;;;;;1.27;1.20;;;17.70;88.90;;;;;;4238515;27;20301;-55
2023/09/24 02:42:12;;;;;;;2.53;1.25;;;17.70;88.60;;;;;;4238115;27;20534;-56
2023/09/24 02:44:56;;;;;;;3.03;1.20;;;17.70;88.40;;;;;;4237324;27;20180;-54
2023/09/24 02:47:38;;;;;;;3.13;1.48;;;17.70;88.30;;;;;;4238436;27;20073;-51
2023/09/24 02:50:23;;;;;;;3.63;1.40;;;17.70;88.20;;;;;;4237595;27;20070;-52
2023/09/24 02:53:05;;;;;;;2.38;1.08;;;17.60;88.00;;;;;;4240229;27;20050;-55
2023/09/24 02:55:47;;;;;;;2.15;1.10;;;17.60;87.90;;;;;;4240454;27;20196;-55
2023/09/24 02:58:29;;;;;;;1.75;1.13;;;17.60;87.80;;;;;;4241554;27;20050;-53
2023/09/24 03:01:16;;;;;;;1.05;1.05;;;17.60;87.60;;;;;;4234018;27;20508;-54
2023/09/24 03:03:59;;;;;;;1.10;1.10;;;17.60;87.30;;;;;;4241392;27;20054;-54
2023/09/24 03:06:41;;;;;;;1.65;1.55;;;17.60;87.40;;;;;;4241886;27;20050;-55
2023/09/24 03:09:22;;;;;;;2.22;1.25;;;17.60;88.10;;;;;;4241682;27;20495;-53
2023/09/24 03:12:03;;;;;;;2.03;1.92;;;17.60;87.20;;;;;;4232843;27;20492;-53
2023/09/24 03:14:44;;;;;;;1.65;1.50;;;17.60;87.10;;;;;;4241831;27;20156;-54
2023/09/24 03:17:27;;;;;;;3.55;1.77;;;17.60;87.10;;;;;;4240780;27;20132;-54
2023/09/24 03:20:18;;;;;;;1.90;1.80;;;17.60;87.10;;;;;;4241503;27;20050;-55
2023/09/24 03:23:08;;;;;;;2.58;1.70;;;17.60;87.10;;;;;;4239012;27;20069;-53
2023/09/24 03:25:49;;;;;;;1.95;1.50;;;17.60;87.00;;;;;;4241314;27;20650;-53
2023/09/24 03:28:30;;;;;;;2.35;2.25;;;17.60;86.90;;;;;;4240122;27;20049;-54
2023/09/24 03:31:13;;;;;;;1.30;1.30;;;17.50;86.80;;;;;;4239331;27;20050;-54
2023/09/24 03:33:55;;;;;;;2.00;1.90;;;17.50;86.80;;;;;;4224304;27;20489;-51
2023/09/24 03:36:37;;;;;;;2.30;2.13;;;17.50;87.60;;;;;;4222950;28;20124;-55
2023/09/24 03:39:17;;;;;;;1.95;1.83;;;17.50;86.70;;;;;;4222147;27;20605;-54
2023/09/24 03:41:58;;;;;;;2.45;2.17;;;17.50;86.60;;;;;;4224129;27;20554;-54
2023/09/24 03:44:39;;;;;;;1.75;1.65;;;17.50;86.50;;;;;;4222216;27;20160;-53
2023/09/24 03:47:21;;;;;;;;;;;17.50;86.50;;;;;;4223477;27;20054;-51
2023/09/24 03:50:04;;;;;;;2.20;2.08;;;17.50;86.60;;;;;;4222305;27;19965;-55
2023/09/24 03:52:46;;;;;;;2.47;1.98;;;17.50;87.30;;;;;;4235715;27;20820;-55
2023/09/24 03:55:27;;;;;;;2.80;2.58;;;17.50;87.10;;;;;;4239632;27;20127;-52
2023/09/24 03:58:08;;;;;;;2.25;2.13;;;17.50;86.90;;;;;;4240116;27;20089;-54
2023/09/24 04:00:49;;;;;;;3.92;2.47;;;17.40;86.80;;;;;;4223620;27;20047;-54
2023/09/24 04:03:30;;;;;;;3.63;2.30;;;17.40;86.80;;;;;;4210030;27;20049;-56
2023/09/24 04:06:14;;;;;;;2.55;2.35;;;17.40;86.90;;;;;;4222651;27;20055;-55
2023/09/24 04:08:55;;;;;;;2.95;2.20;;;17.40;87.00;;;;;;4224070;27;20085;-55
2023/09/24 04:11:36;;;;;;;2.97;2.33;;;17.40;87.00;;;;;;4223657;27;20050;-56
2023/09/24 04:14:16;;;;;;;3.72;2.33;;;17.40;87.00;;;;;;4223569;27;20095;-51
2023/09/24 04:16:58;;;;;;;3.50;2.70;;;17.40;87.10;;;;;;4222208;27;20101;-55
2023/09/24 04:19:39;;;;;;;2.42;2.22;;;17.40;87.20;;;;;;4223781;27;20051;-51
2023/09/24 04:22:22;;;;;;;2.63;2.53;;;17.40;87.30;;;;;;4240672;27;20054;-53
2023/09/24 04:25:04;;;;;;;2.90;2.70;;;17.40;87.30;;;;;;4223273;27;20051;-55
2023/09/24 04:27:45;;;;;;;2.53;2.33;;;17.40;87.30;;;;;;4223042;27;20114;-52
2023/09/24 04:30:26;;;;;;;;;;;17.40;87.30;;;;;;4229041;27;20047;-54
2023/09/24 04:33:09;;;;;;;2.95;2.30;;;17.40;87.20;;;;;;4240090;27;20368;-52
2023/09/24 04:35:51;;;;;;;2.47;2.38;;;17.40;87.90;;;;;;4240228;27;20179;-53
2023/09/24 04:38:34;;;;;;;2.88;2.65;;;17.40;87.60;;;;;;4238547;27;20172;-54
2023/09/24 04:41:16;;;;;;;2.40;2.30;;;17.30;87.50;;;;;;4239815;27;20057;-52
2023/09/24 04:43:56;;;;;;;2.33;2.22;;;17.30;87.30;;;;;;4239064;27;20131;-53
2023/09/24 04:46:38;;;;;;;2.55;2.35;;;17.30;87.00;;;;;;4239562;27;20058;-53
2023/09/24 04:49:19;;;;;;;2.55;2.45;;;17.30;87.00;;;;;;4240065;27;20054;-55
2023/09/24 04:52:01;;;;;;;3.03;2.83;;;17.30;87.00;;;;;;4239285;27;20077;-53
2023/09/24 04:54:43;;;;;;;3.90;3.10;;;17.30;87.10;;;;;;4239574;27;20106;-49
2023/09/24 04:57:24;;;;;;;4.20;3.40;;;17.30;87.30;;;;;;4240129;27;20509;-50
2023/09/24 05:00:06;;;;;;;5.00;3.50;;;17.30;87.30;;;;;;4239625;27;20583;-48
2023/09/24 05:02:47;;;;;;;3.58;3.38;;;17.30;87.30;;;;;;4239754;27;20054;-49
2023/09/24 05:05:29;;;;;;;3.47;3.28;;;17.30;87.30;;;;;;4238818;27;20062;-48
2023/09/24 05:08:10;;;;;;;3.35;3.20;;;17.30;87.40;;;;;;4239537;27;20050;-53
2023/09/24 05:10:52;;;;;;;3.45;3.25;;;17.30;87.20;;;;;;4239650;27;20065;-51
2023/09/24 05:13:32;;;;;;;3.13;2.92;;;17.30;87.10;;;;;;4239476;27;20168;-54
2023/09/24 05:16:15;;;;;;;3.17;3.00;;;17.30;87.10;;;;;;4239235;27;20050;-49
2023/09/24 05:18:56;;;;;;;3.15;2.95;;;17.30;87.90;;;;;;4239509;27;20495;-51
2023/09/24 05:21:37;;;;;;;3.50;3.30;;;17.20;87.00;;;;;;4239866;27;20050;-47
2023/09/24 05:24:18;;;;;;;4.20;3.00;;;17.20;86.90;;;;;;4239319;27;20054;-48
2023/09/24 05:27:01;;;;;;;3.00;2.80;;;17.20;86.90;;;;;;4239427;27;20054;-48
2023/09/24 05:29:42;;;;;;;3.13;2.92;;;17.20;87.10;;;;;;4239223;27;20057;-51
2023/09/24 05:32:22;;;;;;;3.70;3.40;;;17.30;87.10;;;;;;4238811;27;20492;-47
2023/09/24 05:35:04;;;;;;;5.00;3.15;;;17.30;87.00;;;;;;4238693;27;20054;-48
2023/09/24 05:37:45;;;;;;;3.17;2.85;;;17.30;86.80;;;;;;4222538;27;20054;-47
2023/09/24 05:40:26;;;;;;;3.80;3.13;;;17.30;86.70;;;;;;4222288;27;20050;-53
2023/09/24 05:43:08;;;;;;;5.68;3.42;;;17.30;86.60;;;;;;4222311;27;20124;-52
2023/09/24 05:45:50;;;;;;;3.38;3.05;;;17.20;86.50;;;;;;4238212;27;20134;-55
2023/09/24 05:48:31;;;;;;;4.38;2.97;;;17.20;86.40;;;;;;4238635;27;20042;-55
2023/09/24 05:51:12;;;;;;;3.70;3.22;;;17.20;86.30;;;;;;4238733;27;20050;-53
2023/09/24 05:53:53;;;;;;;3.33;3.03;;;17.20;86.30;;;;;;4238646;27;20772;-55
2023/09/24 05:56:34;;;;;;;4.25;3.22;;;17.20;86.30;;;;;;4220942;27;20047;-51
2023/09/24 05:59:19;;;;;;;3.55;3.15;;;17.20;86.30;;;;;;4221760;27;20399;-52
2023/09/24 06:02:00;;;;;;;4.72;3.28;;;17.20;86.40;;;;;;4233169;27;20401;-52
2023/09/24 06:04:41;;;;;;;4.90;3.28;;;17.20;86.50;;;;;;4238301;27;20824;-48
2023/09/24 06:07:22;;;;;;;3.97;3.38;;;17.20;86.50;;;;;;4238506;27;20382;-48
2023/09/24 06:10:04;;;;;;;3.30;3.00;;;17.10;86.40;;;;;;4238366;27;20188;-48
2023/09/24 06:12:46;;;;;;;5.07;3.63;;;17.10;86.40;;;;;;4238507;27;20062;-48
2023/09/24 06:15:28;;;;;;;3.65;3.20;;;17.10;86.40;;;;;;4238056;27;20058;-55
2023/09/24 06:18:10;;;;;;;3.47;3.17;;;17.10;86.40;;;;;;4237516;27;20050;-55
2023/09/24 06:20:50;;;;;;;4.97;3.90;;;17.10;86.40;;;;;;4238441;27;20061;-56
2023/09/24 06:23:32;;;;;;;3.28;3.05;;;17.10;86.50;;;;;;4238021;27;20602;-54
2023/09/24 06:26:13;;;;;;;;;;;17.10;86.30;;;;;;4238514;27;20543;-51
2023/09/24 06:28:54;;;;;;;3.70;3.40;;;17.10;86.50;;;;;;4238388;27;19981;-52
2023/09/24 06:31:50;;;;;;;3.75;3.53;;;17.10;87.20;;;;;;4237282;27;20401;-54
2023/09/24 06:34:35;;;;;;;3.47;3.17;;;17.10;87.20;;;;;;4236690;27;20050;-54
2023/09/24 06:37:16;;;;;;;5.72;3.63;;;17.00;87.20;;;;;;4238204;27;20126;-51
2023/09/24 06:39:58;;;;;;;5.40;2.95;;;17.10;87.20;;;;;;4238318;27;20181;-52
2023/09/24 06:42:38;;;;;;;4.38;3.53;;;17.00;87.10;;;;;;4237841;27;20479;-51
2023/09/24 06:45:19;;;;;;;4.43;3.35;;;17.10;87.20;;;;;;4237858;27;20451;-55
2023/09/24 06:48:03;;;;;;;5.05;3.38;;;17.00;87.20;;;;;;4237747;27;20050;-53
2023/09/24 06:50:43;;;;;;;4.32;3.72;;;17.10;87.20;;;;;;4221634;27;20433;-55
2023/09/24 06:53:26;;;;;;;7.00;3.83;;;17.10;87.20;;;;;;4238437;27;20123;-56
2023/09/24 06:56:07;;;;;;;9.05;3.92;;;17.10;87.10;;;;;;4238432;27;20045;-54
2023/09/24 06:58:48;;;;;;;3.97;3.63;;;17.00;87.10;;;;;;4237908;27;20058;-51
2023/09/24 07:01:30;;;;;;;4.18;3.78;;;17.00;87.20;;;;;;4237593;27;20050;-53
2023/09/24 07:04:12;;;;;;;6.65;3.72;;;17.10;87.40;;;;;;4237380;27;20050;-51
2023/09/24 07:06:54;;;;;;;7.38;4.30;;;17.10;87.40;;;;;;4231755;27;20054;-51
2023/09/24 07:09:35;;;;;;;6.63;3.70;;;17.10;87.50;;;;;;4237903;27;20046;-51
2023/09/24 07:12:17;;;;;;;4.53;3.88;;;17.10;87.40;;;;;;4237456;27;20058;-53
2023/09/24 07:14:58;;;;;;;6.20;3.92;;;17.10;87.30;;;;;;4236801;27;20395;-51
2023/09/24 07:17:39;;;;;;;4.75;4.25;;;17.20;87.50;;;;;;4221240;27;20488;-50
2023/09/24 07:20:21;;;;;;;5.07;3.58;;;17.20;87.50;;;;;;4231699;27;20108;-49
2023/09/24 07:23:02;;;;;;;6.45;4.10;;;17.20;87.50;;;;;;4237331;27;20519;-55
2023/09/24 07:25:43;;;;;;;10.25;4.35;;;17.20;87.50;;;;;;4236151;27;20066;-51
2023/09/24 07:28:25;;;;;;;4.95;3.83;;;17.30;87.60;;;;;;4229160;27;20468;-50
2023/09/24 07:31:13;;;;;;;6.13;3.83;;;17.30;87.60;;;;;;4237886;27;20738;-50
2023/09/24 07:33:55;;;;;;;10.82;4.68;;;17.30;88.40;;;;;;4236579;27;20058;-52
2023/09/24 07:36:38;;;;;;;7.65;3.60;;;17.30;87.50;;;;;;4235952;27;20051;-52
2023/09/24 07:39:32;;;;;;;6.07;4.00;;;17.30;88.30;;;;;;4240395;27;20046;-52
2023/09/24 07:42:13;;;;;;;6.25;4.25;;;17.40;87.50;;;;;;4241305;27;20127;-49
2023/09/24 07:44:54;;;;;;;9.75;4.47;;;17.40;87.40;;;;;;4240945;27;20053;-50
2023/09/24 07:47:34;;;;;;;7.07;4.68;;;17.40;87.30;;;;;;4240984;27;20101;-49
2023/09/24 07:50:16;;;;;;;6.70;4.15;;;17.40;87.20;;;;;;4223699;27;20045;-50
2023/09/24 07:52:58;;;;;;;4.68;3.83;;;17.40;87.20;;;;;;4223631;27;20055;-52
2023/09/24 07:55:39;;;;;;;7.18;3.78;;;17.50;88.10;;;;;;4236219;27;20095;-53
2023/09/24 07:58:20;;;;;;;8.10;4.22;;;17.50;88.00;;;;;;4239760;27;20054;-55
2023/09/24 08:01:06;;;;;;;10.00;6.05;;;17.50;87.00;;;;;;4223269;27;20047;-49
2023/09/24 08:03:47;;;;;;;7.15;4.40;;;17.60;87.00;;;;;;4223890;27;20176;-50
2023/09/24 08:06:28;;;;;;;7.93;4.47;;;17.60;86.90;;;;;;4223092;27;20054;-52
2023/09/24 08:09:11;;;;;;;5.40;4.18;;;17.60;86.70;;;;;;4237102;27;20172;-54
2023/09/24 08:12:05;;;;;;;5.90;3.80;;;17.60;86.50;;;;;;4238002;27;20042;-53
2023/09/24 08:14:47;;;;;;;7.50;3.90;;;17.60;86.40;;;;;;4240173;27;20408;-50
2023/09/24 08:17:29;;;;;;;8.48;3.55;;;17.60;86.30;;;;;;4237073;27;20065;-53
2023/09/24 08:20:11;;;;;;;8.90;3.90;;;17.60;86.20;;;;;;4236567;27;20142;-55
2023/09/24 08:22:52;;;;;;;5.53;3.90;;;17.60;86.10;;;;;;4239868;27;20046;-55
2023/09/24 08:25:35;;;;;;;6.25;3.35;;;17.70;85.90;;;;;;4239691;27;20050;-54
2023/09/24 08:28:17;;;;;;;4.18;3.78;;;17.70;85.90;;;;;;4239646;27;20050;-53
2023/09/24 08:30:57;;;;;;;5.45;3.60;;;17.70;85.70;;;;;;4239675;27;20050;-55
2023/09/24 08:33:38;;;;;;;6.95;4.00;;;17.70;85.50;;;;;;4221467;27;20066;-55
2023/09/24 08:36:21;;;;;;;;;;;17.70;85.40;;;;;;4223264;27;20084;-54
2023/09/24 08:39:03;;;;;;;7.93;3.95;;;17.80;85.40;;;;;;4222764;27;19927;-54
2023/09/24 08:41:47;;;;;;;4.57;2.95;;;17.80;85.40;;;;;;4227068;27;20467;-53
2023/09/24 08:44:30;;;;;;;4.28;3.03;;;17.80;85.30;;;;;;4239792;27;20405;-55
2023/09/24 08:47:11;;;;;;;5.63;2.63;;;17.80;85.20;;;;;;4239175;27;20131;-54
2023/09/24 08:49:53;;;;;;;6.22;3.63;;;17.80;85.10;;;;;;4238580;27;20097;-52
2023/09/24 08:52:36;;;;;;;7.30;3.30;;;17.80;85.00;;;;;;4239640;27;20046;-55
2023/09/24 08:55:17;;;;;;;6.57;3.20;;;17.80;84.70;;;;;;4239049;27;20115;-55
2023/09/24 09:02:05;;;;;;;5.72;2.85;;;17.80;84.50;;;;;;4202558;28;20177;-42
2023/09/24 09:04:48;;;;;;;5.68;3.30;;;17.80;84.40;;;;;;4205075;28;20136;-43
2023/09/24 09:07:29;;;;;;;6.13;2.80;;;17.80;84.00;;;;;;4204833;28;20047;-42
2023/09/24 09:10:10;;;;;;;5.70;2.58;;;17.90;83.90;;;;;;4203834;28;20059;-43
2023/09/24 09:12:51;;;;;;;;;;;17.80;83.60;;;;;;4204962;28;20051;-42
2023/09/24 09:15:33;;;;;;;5.68;3.10;;;17.90;83.50;;;;;;4205088;28;20057;-42
2023/09/24 09:18:24;;;;;;;8.13;2.60;;;17.90;83.40;;;;;;4202764;28;20150;-42
2023/09/24 09:21:05;;;;;;;7.00;2.83;;;17.90;83.00;;;;;;4204674;28;20051;-42
2023/09/24 09:23:46;;;;;;;4.35;2.60;;;18.00;82.80;;;;;;4209224;28;20067;-41
2023/09/24 09:26:28;;;;;;;6.38;2.45;;;18.00;82.60;;;;;;4221707;28;20439;-42
2023/09/24 09:29:21;;;;;;;4.22;2.75;;;18.00;83.30;;;;;;4221155;28;20050;-42
2023/09/24 09:32:02;;;;;;;3.83;2.35;;;18.00;82.10;;;;;;4220520;28;20051;-42
2023/09/24 09:34:54;;;;;;;;;;;18.10;82.10;;;;;;4209250;28;20067;-41
2023/09/24 09:37:35;;;;;;;3.28;2.40;;;18.10;82.10;;;;;;4219297;28;20310;-42
2023/09/24 09:40:18;;;;;;;3.65;2.42;;;18.10;82.00;;;;;;4205442;28;20093;-42
2023/09/24 09:43:00;;;;;;;4.75;2.63;;;18.10;81.70;;;;;;4203253;28;20501;-43
2023/09/24 09:45:43;;;;;;;5.25;2.60;;;18.20;81.60;;;;;;4202864;28;20055;-42
2023/09/24 09:48:30;;;;;;;6.97;2.58;;;18.20;81.30;;;;;;4203347;28;20055;-42
2023/09/24 09:51:17;;;;;;;5.13;2.38;;;18.20;81.00;;;;;;4219382;28;20046;-42
2023/09/24 09:54:06;;;;;;;5.53;2.50;;;18.20;80.80;;;;;;4210166;28;20051;-42
2023/09/24 09:56:47;;;;;;;4.13;2.53;;;18.30;80.50;;;;;;4213335;27;20050;-43
2023/09/24 09:59:29;;;;;;;4.78;2.30;;;18.20;80.40;;;;;;4219576;28;20129;-42
2023/09/24 10:02:10;;;;;;;;;;;18.30;80.50;;;;;;4186802;28;20055;-45
2023/09/24 10:04:53;;;;;;;8.80;2.83;;;18.30;80.50;;;;;;4185979;28;19935;-43
2023/09/24 10:07:38;;;;;;;3.33;2.28;;;18.30;80.40;;;;;;4215428;28;20050;-42
2023/09/24 10:10:42;;;;;;;6.13;2.33;;;18.30;79.90;;;;;;4206840;28;19927;-43
2023/09/24 10:13:47;;;;;;;3.42;2.25;;;18.30;79.20;;;;;;4165002;28;20051;-42
2023/09/24 10:16:38;;;;;;;3.85;2.03;;;18.40;79.10;;;;;;4195548;28;20051;-43
2023/09/24 10:19:20;;;;;;;8.05;2.83;;;18.40;78.90;;;;;;4202140;28;20106;-41
2023/09/24 10:22:24;;;;;;;5.47;2.33;;;18.40;79.00;;;;;;4185355;28;20059;-41
2023/09/24 10:25:33;;;;;;;5.18;2.40;;;18.40;78.80;;;;;;4184915;28;20411;-41
2023/09/24 10:28:13;;;;;;;6.18;2.85;;;18.50;78.90;;;;;;4183631;28;20130;-41
2023/09/24 10:31:05;;;;;;;5.18;2.25;;;18.50;78.80;;;;;;4195812;28;20051;-41
2023/09/24 10:33:57;;;;;;;3.92;2.00;;;18.50;78.40;;;;;;4202453;28;20583;-42
2023/09/24 10:36:38;;;;;;;4.63;2.15;;;18.50;78.10;;;;;;4203687;28;20047;-41
2023/09/24 10:39:20;;;;;;;7.65;2.42;;;18.60;78.10;;;;;;4203345;28;20410;-41
2023/09/24 10:42:15;;;;;;;3.22;1.80;;;18.60;78.00;;;;;;4186296;28;20055;-41
2023/09/24 10:45:27;;;;;;;7.43;2.22;;;18.60;77.80;;;;;;4185962;28;20182;-40
2023/09/24 10:48:08;;;;;;;3.67;2.00;;;18.60;77.40;;;;;;4182963;28;20063;-41
2023/09/24 10:50:50;;;;;;;5.25;1.60;;;18.60;77.20;;;;;;4186657;28;20048;-42
2023/09/24 10:53:31;;;;;;;3.22;1.75;;;18.70;77.10;;;;;;4185076;28;20043;-41
2023/09/24 10:56:12;;;;;;;2.92;1.67;;;18.60;76.90;;;;;;4186479;28;20110;-41
2023/09/24 10:58:54;;;;;;;3.10;2.15;;;18.70;76.50;;;;;;4193134;28;20063;-41
2023/09/24 11:01:35;;;;;;;4.22;1.50;;;18.70;76.00;;;;;;4211509;28;20057;-42
2023/09/24 11:04:26;;;;;;;4.15;1.80;;;18.70;75.50;;;;;;4219410;28;20059;-43
2023/09/24 11:07:11;;;;;;;3.17;1.45;;;18.70;75.20;;;;;;4220310;28;20193;-42
2023/09/24 11:09:52;;;;;;;5.28;2.08;;;18.70;74.90;;;;;;4220260;28;20051;-45
2023/09/24 11:12:33;;;;;;;6.65;1.55;;;18.70;74.60;;;;;;4221961;28;20051;-42
2023/09/24 11:15:17;;;;;;;3.47;1.80;;;18.80;75.10;;;;;;4222871;28;20100;-43
2023/09/24 11:17:58;;;;;;;5.53;1.80;;;18.70;74.00;;;;;;4221707;27;20123;-42
2023/09/24 11:20:48;;;;;;;5.00;1.65;;;18.80;74.10;;;;;;4236737;27;20054;-41
2023/09/24 11:23:37;;;;;;;3.92;1.95;;;18.80;73.90;;;;;;4240333;27;20051;-42
2023/09/24 11:26:27;;;;;;;5.35;1.75;;;18.80;73.90;;;;;;4240010;27;20495;-42
2023/09/24 11:29:09;;;;;;;3.17;2.53;;;18.80;73.90;;;;;;4231874;27;20062;-42
2023/09/24 11:31:52;;;;;;;3.30;1.67;;;18.80;73.90;;;;;;4224150;27;20050;-42
2023/09/24 11:34:33;;;;;;;3.55;1.67;;;18.80;74.00;;;;;;4234854;27;20053;-42
2023/09/24 11:37:14;;;;;;;6.25;1.95;;;18.80;74.00;;;;;;4223317;28;20055;-42
2023/09/24 11:39:56;;;;;;;2.95;1.70;;;18.90;73.80;;;;;;4232537;27;20058;-41
2023/09/24 11:42:42;;;;;;;4.55;2.03;;;18.90;73.80;;;;;;4210749;28;20051;-42
2023/09/24 11:45:40;;;;;;;3.42;1.67;;;18.90;73.70;;;;;;4223097;28;20607;-41
2023/09/24 11:48:24;;;;;;;3.25;1.60;;;18.90;73.40;;;;;;4209194;28;20098;-41
2023/09/24 11:51:06;;;;;;;4.10;1.60;;;18.90;73.40;;;;;;4222266;28;20055;-41
2023/09/24 11:53:47;;;;;;;2.17;1.67;;;19.00;73.40;;;;;;4234617;27;20450;-41
2023/09/24 11:56:28;;;;;;;2.70;1.80;;;19.00;73.20;;;;;;4239535;27;20508;-41
2023/09/24 11:59:09;;;;;;;4.25;2.00;;;19.00;73.00;;;;;;4234447;27;20120;-43
2023/09/24 12:01:51;;;;;;;2.00;1.60;;;19.00;72.90;;;;;;4222708;28;20058;-42
2023/09/24 12:04:33;;;;;;;3.97;1.30;;;19.10;72.90;;;;;;4210292;28;20100;-41
2023/09/24 12:07:14;;;;;;;4.38;1.65;;;19.10;72.70;;;;;;4222130;28;20447;-42
2023/09/24 12:09:56;;;;;;;3.13;1.35;;;19.10;72.60;;;;;;4238468;27;20148;-42
2023/09/24 12:12:37;;;;;;;5.15;1.70;;;19.10;72.40;;;;;;4238918;27;20062;-42
2023/09/24 12:15:18;;;;;;;2.20;1.48;;;19.10;72.20;;;;;;4222892;28;20054;-41
2023/09/24 12:18:01;;;;;;;2.88;1.55;;;19.10;72.10;;;;;;4223347;27;20105;-41
2023/09/24 12:20:44;;;;;;;3.45;1.40;;;19.10;72.10;;;;;;4222704;28;20059;-41
2023/09/24 12:23:25;;;;;;;4.95;1.65;;;19.20;72.20;;;;;;4221922;28;20062;-42
2023/09/24 12:26:06;;;;;;;3.65;1.60;;;19.20;72.50;;;;;;4234324;27;20050;-42
2023/09/24 12:28:48;;;;;;;4.20;1.70;;;19.20;72.70;;;;;;4231740;27;20571;-42
2023/09/24 12:31:29;;;;;;;4.60;1.50;;;19.20;72.60;;;;;;4208724;28;20047;-42
2023/09/24 12:34:10;;;;;;;2.15;1.45;;;19.30;72.50;;;;;;4237540;27;20103;-42
2023/09/24 12:36:53;;;;;;;4.80;1.52;;;19.30;72.50;;;;;;4238368;27;20058;-42
2023/09/24 12:39:35;;;;;;;2.28;1.08;;;19.30;72.40;;;;;;4236782;27;20084;-42
2023/09/24 12:42:16;;;;;;;3.40;1.33;;;19.30;72.30;;;;;;4224938;27;20496;-42
2023/09/24 12:44:57;;;;;;;5.50;1.35;;;19.30;72.00;;;;;;4238694;27;20049;-41
2023/09/24 12:47:39;;;;;;;1.52;1.42;;;19.40;71.80;;;;;;4237901;27;20054;-41
2023/09/24 12:50:20;;;;;;;4.22;1.52;;;19.40;71.40;;;;;;4221592;28;20402;-42
2023/09/24 12:53:04;;;;;;;2.78;1.23;;;19.40;71.30;;;;;;4221215;28;20516;-41
2023/09/24 12:55:45;;;;;;;4.15;1.40;;;19.40;71.40;;;;;;4221478;28;20050;-41
2023/09/24 12:58:26;;;;;;;2.25;1.70;;;19.40;71.30;;;;;;4220805;27;20124;-41
2023/09/24 13:01:07;;;;;;;6.03;1.85;;;19.40;71.10;;;;;;4238775;27;20042;-42
2023/09/24 13:03:48;;;;;;;3.40;1.60;;;19.50;70.90;;;;;;4238560;27;20578;-41
2023/09/24 13:06:29;;;;;;;1.58;1.02;;;19.50;70.80;;;;;;4238438;27;20062;-41
2023/09/24 13:09:16;;;;;;;1.92;1.38;;;19.50;70.60;;;;;;4226472;27;20550;-41
2023/09/24 13:11:58;;;;;;;1.95;0.95;;;19.50;71.30;;;;;;4238054;27;20054;-41
2023/09/24 13:14:39;;;;;;;2.13;1.40;;;19.50;70.00;;;;;;4238407;27;20505;-41
2023/09/24 13:17:20;;;;;;;;;;;19.50;69.90;;;;;;4239077;27;20078;-42
2023/09/24 13:20:02;;;;;;;3.88;1.23;;;19.50;69.70;;;;;;4227163;27;20659;-42
2023/09/24 13:22:43;;;;;;;3.42;1.75;;;19.50;69.60;;;;;;4237555;27;20058;-41
2023/09/24 13:25:26;;;;;;;4.65;1.20;;;19.50;69.40;;;;;;4237521;27;20118;-42
2023/09/24 13:28:08;;;;;;;2.38;1.40;;;19.50;69.50;;;;;;4220765;28;20101;-41
2023/09/24 13:30:49;;;;;;;2.00;1.13;;;19.50;69.50;;;;;;4221354;28;20055;-41
2023/09/24 13:33:30;;;;;;;5.07;1.30;;;19.60;69.70;;;;;;4221073;28;20607;-41
2023/09/24 13:36:12;;;;;;;3.60;1.48;;;19.60;70.00;;;;;;4232339;27;20158;-41
2023/09/24 13:38:54;;;;;;;2.80;1.45;;;19.60;70.20;;;;;;4238365;27;20061;-41
2023/09/24 13:41:37;;;;;;;2.80;1.05;;;19.60;70.40;;;;;;4234514;27;20119;-41
2023/09/24 13:44:18;;;;;;;2.60;1.30;;;19.70;70.70;;;;;;4221908;27;20112;-43
2023/09/24 13:46:58;;;;;;;4.00;1.58;;;19.60;70.60;;;;;;4238389;27;20050;-42
2023/09/24 13:49:40;;;;;;;3.13;1.27;;;19.70;70.90;;;;;;4220286;28;20152;-42
2023/09/24 13:52:21;;;;;;;2.53;1.10;;;19.70;72.30;;;;;;4222314;27;20062;-42
2023/09/24 13:55:02;;;;;;;1.88;1.00;;;19.70;71.70;;;;;;4236789;27;20099;-43
2023/09/24 13:57:45;;;;;;;6.00;1.40;;;19.80;71.90;;;;;;4237465;27;20397;-44
2023/09/24 14:00:27;;;;;;;2.65;1.15;;;19.80;72.00;;;;;;4229543;27;20439;-44
2023/09/24 14:03:08;;;;;;;4.32;1.67;;;19.90;72.10;;;;;;4235869;27;20519;-42
2023/09/24 14:05:57;;;;;;;3.00;1.20;;;19.90;72.10;;;;;;4237395;27;20127;-42
2023/09/24 14:14:34;;;;;;;1.80;1.15;;;20.00;71.50;;;;;;4233057;27;20091;-42
2023/09/24 14:17:15;;;;;;;3.47;1.38;;;20.00;71.20;;;;;;4237772;27;20057;-43
2023/09/24 14:19:56;;;;;;;1.20;1.10;;;20.10;72.00;;;;;;4219323;28;20156;-42
2023/09/24 14:22:37;;;;;;;;;;;20.10;71.00;;;;;;4220901;28;20108;-42